ESGJ/JKG METAR and TAF weather

Enter ICAO airport designator
Station Type Date Time Source
ESGJ METAR 2018/10/16 20:50 UTC NOAA

ESGJ 162050Z 20003KT 5000 BR SCT029 11/11 Q1018


Station Type Date Time Source
ESGJ Decoded METAR 2018/10/16 20:50 UTC NOAA

Jonkoping Flygplats, Sweden (ESGJ) 57-46N 014-05E 232M
Oct 16, 2018 - 04:50 PM EDT / 2018.10.16 2050 UTC
Wind: from the SSW (200 degrees) at 3 MPH (3 KT):0
Visibility: 3 mile(s):0
Sky conditions: partly cloudy
Weather: mist
Temperature: 51 F (11 C)
Dew Point: 51 F (11 C)
Relative Humidity: 100%
Pressure (altimeter): 30.06 in. Hg (1018 hPa)
ob: ESGJ 162050Z 20003KT 5000 BR SCT029 11/11 Q1018
cycle: 21

Station Type Date Time Source
ESGJ TAF 2015/05/01 23:06 UTC NOAA

TAF TAF ESGJ 302359Z 3023/0101 CNL


Example: see airport list